Hlavní strana
METAR-TAF:

METAR-TAF

Letiště :

Florencie, Itálie

zeměpisná šířka: 43-48N, zeměpisná délka: 011-12E, výška: 40 m

Aktuální stav počasí

Zpráva byla vytvořena před 23 minutami, v 10:50 UTC
Jihojihovýchodní vítr 3 kt, proměnlivý mezi východním a jihozápadním
Teplota 23°C
Vlhkost vzduchu 50%
Tlak 1016 hPa
Viditelnost 10 km a více
Žádná oblačnost pod 1500 m, nevyskytují se cumulonimby.

METAR: LIRQ 151050Z 15003KT 100V220 CAVOK 23/12 Q1016

Čas: 13:13 (11:13 UTC)

Předpověď počasí

Zpráva byla vytvořena před 6 hodinami a 13 minutami, v 05:00 UTC
Předpověď platná od 15 v 06 UTC do 16 v 06 UTC
vítr z různých směrů 5 kt
Viditelnost 10 km a více
Skoro jasno ve výšce 3000 ft

TAF: LIRQ 150500Z 1506/1606 VRB05KT 9999 FEW030

Stav a předpovědi počasí z více než 4 000 letišť (zprávy METAR a TAF).

Červené a žluté tečky na mapě představují dostupné meteorologické stanice.

Když kurzor umístíte na tečku, zobrazí se název stanice.

Pak kliknutím zobrazíte stav a předpověď počasí.

Chcete-li změnit mapu, kliknutím na zelené tlačítko se znaménkem +mapu přiblížíte, kliknutím na zelené tlačítko se znaménkem – mapu oddálíte a kliknutím na zelené šipky přejdete na sousední mapy.


METAR-TAF: